sensor_id;sensor_type;location;lat;lon;timestamp;pressure;altitude;pressure_sealevel;temperature;humidity
4133;BME280;2080;51.038;7.008;2022-07-25T00:00:34;74514.50;;;-142.53;81.32
4133;BME280;2080;51.038;7.008;2022-07-25T00:03:02;74506.72;;;-142.53;80.60
4133;BME280;2080;51.038;7.008;2022-07-25T00:05:28;74514.50;;;-142.53;80.78
4133;BME280;2080;51.038;7.008;2022-07-25T00:07:55;74510.59;;;-142.53;81.24
4133;BME280;2080;51.038;7.008;2022-07-25T00:10:21;74510.59;;;-142.53;80.74
4133;BME280;2080;51.038;7.008;2022-07-25T00:12:46;74502.84;;;-142.53;80.79
4133;BME280;2080;51.038;7.008;2022-07-25T00:15:12;74506.72;;;-142.53;80.70
4133;BME280;2080;51.038;7.008;2022-07-25T00:17:40;74500.91;;;-142.53;80.73
4133;BME280;2080;51.038;7.008;2022-07-25T00:20:06;74498.97;;;-142.53;80.23
4133;BME280;2080;51.038;7.008;2022-07-25T00:22:32;74504.78;;;-142.53;80.05
4133;BME280;2080;51.038;7.008;2022-07-25T00:25:00;74498.97;;;-142.53;80.45
4133;BME280;2080;51.038;7.008;2022-07-25T00:27:25;74498.97;;;-142.53;79.84
4133;BME280;2080;51.038;7.008;2022-07-25T00:29:51;74498.97;;;-142.53;79.85
4133;BME280;2080;51.038;7.008;2022-07-25T00:32:18;74495.06;;;-142.53;80.61
4133;BME280;2080;51.038;7.008;2022-07-25T00:34:44;74506.72;;;-142.53;79.58
4133;BME280;2080;51.038;7.008;2022-07-25T00:37:09;74504.78;;;-142.53;79.46
4133;BME280;2080;51.038;7.008;2022-07-25T00:39:35;74512.53;;;-142.53;80.01
4133;BME280;2080;51.038;7.008;2022-07-25T00:42:00;74497.00;;;-142.53;80.33
4133;BME280;2080;51.038;7.008;2022-07-25T00:44:28;74498.97;;;-142.53;80.31
4133;BME280;2080;51.038;7.008;2022-07-25T00:46:56;74504.78;;;-142.53;79.59
4133;BME280;2080;51.038;7.008;2022-07-25T00:49:25;74495.06;;;-142.53;79.32
4133;BME280;2080;51.038;7.008;2022-07-25T00:51:55;74495.06;;;-142.53;79.98
4133;BME280;2080;51.038;7.008;2022-07-25T00:54:21;74495.06;;;-142.53;79.50
4133;BME280;2080;51.038;7.008;2022-07-25T00:56:47;74502.84;;;-142.53;79.96
4133;BME280;2080;51.038;7.008;2022-07-25T00:59:13;74506.72;;;-142.53;79.31
4133;BME280;2080;51.038;7.008;2022-07-25T01:01:41;74510.59;;;-142.53;79.17
4133;BME280;2080;51.038;7.008;2022-07-25T01:04:12;74502.84;;;-142.53;79.85
4133;BME280;2080;51.038;7.008;2022-07-25T01:06:37;74502.84;;;-142.53;79.30
4133;BME280;2080;51.038;7.008;2022-07-25T01:09:07;74506.72;;;-142.53;80.04
4133;BME280;2080;51.038;7.008;2022-07-25T01:11:33;74510.59;;;-142.53;79.99
4133;BME280;2080;51.038;7.008;2022-07-25T01:14:02;74510.59;;;-142.53;79.77
4133;BME280;2080;51.038;7.008;2022-07-25T01:16:28;74522.25;;;-142.53;79.95
4133;BME280;2080;51.038;7.008;2022-07-25T01:18:53;74522.25;;;-142.53;80.92
4133;BME280;2080;51.038;7.008;2022-07-25T01:21:21;74522.25;;;-142.53;82.77
4133;BME280;2080;51.038;7.008;2022-07-25T01:23:46;74526.13;;;-142.53;83.46
4133;BME280;2080;51.038;7.008;2022-07-25T01:26:20;74533.91;;;-142.53;84.30
4133;BME280;2080;51.038;7.008;2022-07-25T01:28:45;74541.66;;;-142.53;83.44
4133;BME280;2080;51.038;7.008;2022-07-25T01:31:10;74557.19;;;-142.53;84.76
4133;BME280;2080;51.038;7.008;2022-07-25T01:33:36;74561.06;;;-142.53;86.82
4133;BME280;2080;51.038;7.008;2022-07-25T01:36:01;74564.97;;;-142.53;89.85
4133;BME280;2080;51.038;7.008;2022-07-25T01:38:27;74568.84;;;-142.53;90.17
4133;BME280;2080;51.038;7.008;2022-07-25T01:40:54;74564.97;;;-142.53;92.10
4133;BME280;2080;51.038;7.008;2022-07-25T01:43:20;74568.84;;;-142.53;92.76
4133;BME280;2080;51.038;7.008;2022-07-25T01:45:48;74576.59;;;-142.53;91.83
4133;BME280;2080;51.038;7.008;2022-07-25T01:48:15;74584.38;;;-142.53;91.77
4133;BME280;2080;51.038;7.008;2022-07-25T01:50:43;74594.09;;;-142.53;93.45
4133;BME280;2080;51.038;7.008;2022-07-25T01:53:09;74599.91;;;-142.53;94.58
4133;BME280;2080;51.038;7.008;2022-07-25T01:55:36;74603.78;;;-142.53;94.78
4133;BME280;2080;51.038;7.008;2022-07-25T01:58:02;74603.78;;;-142.53;96.26
4133;BME280;2080;51.038;7.008;2022-07-25T02:00:28;74599.91;;;-142.53;96.45
4133;BME280;2080;51.038;7.008;2022-07-25T02:02:55;74596.03;;;-142.53;95.44
4133;BME280;2080;51.038;7.008;2022-07-25T02:05:41;74596.03;;;-142.53;95.43
4133;BME280;2080;51.038;7.008;2022-07-25T02:08:07;74599.91;;;-142.53;94.46
4133;BME280;2080;51.038;7.008;2022-07-25T02:10:32;74611.56;;;-142.53;94.06
4133;BME280;2080;51.038;7.008;2022-07-25T02:13:01;74623.19;;;-142.53;93.38
4133;BME280;2080;51.038;7.008;2022-07-25T02:15:26;74630.97;;;-142.53;94.07
4133;BME280;2080;51.038;7.008;2022-07-25T02:17:52;74634.84;;;-142.53;94.75
4133;BME280;2080;51.038;7.008;2022-07-25T02:20:17;74630.97;;;-142.53;96.81
4133;BME280;2080;51.038;7.008;2022-07-25T02:22:43;74638.72;;;-142.53;97.09
4133;BME280;2080;51.038;7.008;2022-07-25T02:25:10;74627.09;;;-142.53;96.88
4133;BME280;2080;51.038;7.008;2022-07-25T02:27:36;74638.72;;;-142.53;96.82
4133;BME280;2080;51.038;7.008;2022-07-25T02:30:03;74632.91;;;-142.53;96.89
4133;BME280;2080;51.038;7.008;2022-07-25T02:32:29;74623.19;;;-142.53;95.91
4133;BME280;2080;51.038;7.008;2022-07-25T02:34:54;74615.44;;;-142.53;94.39
4133;BME280;2080;51.038;7.008;2022-07-25T02:37:20;74609.63;;;-142.53;93.03
4133;BME280;2080;51.038;7.008;2022-07-25T02:39:47;74611.56;;;-142.53;92.21
4133;BME280;2080;51.038;7.008;2022-07-25T02:42:12;74613.50;;;-142.53;91.38
4133;BME280;2080;51.038;7.008;2022-07-25T02:44:38;74615.44;;;-142.53;91.14
4133;BME280;2080;51.038;7.008;2022-07-25T02:47:03;74607.66;;;-142.53;90.36
4133;BME280;2080;51.038;7.008;2022-07-25T02:49:31;74594.09;;;-142.53;90.33
4133;BME280;2080;51.038;7.008;2022-07-25T02:51:59;74592.13;;;-142.53;89.60
4133;BME280;2080;51.038;7.008;2022-07-25T02:54:24;74596.03;;;-142.53;91.15
4133;BME280;2080;51.038;7.008;2022-07-25T02:56:49;74592.13;;;-142.53;90.38
4133;BME280;2080;51.038;7.008;2022-07-25T02:59:15;74611.56;;;-142.53;89.64
4133;BME280;2080;51.038;7.008;2022-07-25T03:01:40;74615.44;;;-142.53;89.20
4133;BME280;2080;51.038;7.008;2022-07-25T03:04:06;74615.44;;;-142.53;90.66
4133;BME280;2080;51.038;7.008;2022-07-25T03:06:33;74609.63;;;-142.53;91.99
4133;BME280;2080;51.038;7.008;2022-07-25T03:08:59;74611.56;;;-142.53;91.56
4133;BME280;2080;51.038;7.008;2022-07-25T03:11:24;74611.56;;;-142.53;91.54
4133;BME280;2080;51.038;7.008;2022-07-25T03:13:50;74607.66;;;-142.53;93.17
4133;BME280;2080;51.038;7.008;2022-07-25T03:16:15;74607.66;;;-142.53;93.19
4133;BME280;2080;51.038;7.008;2022-07-25T03:18:40;74603.78;;;-142.53;92.43
4133;BME280;2080;51.038;7.008;2022-07-25T03:21:06;74599.91;;;-142.53;92.48
4133;BME280;2080;51.038;7.008;2022-07-25T03:23:32;74594.09;;;-142.53;94.31
4133;BME280;2080;51.038;7.008;2022-07-25T03:25:57;74594.09;;;-142.53;95.64
4133;BME280;2080;51.038;7.008;2022-07-25T03:28:25;74592.13;;;-142.53;94.56
4133;BME280;2080;51.038;7.008;2022-07-25T03:30:53;74592.13;;;-142.53;92.63
4133;BME280;2080;51.038;7.008;2022-07-25T03:33:19;74596.03;;;-142.53;92.76
4133;BME280;2080;51.038;7.008;2022-07-25T03:35:44;74592.13;;;-142.53;92.11
4133;BME280;2080;51.038;7.008;2022-07-25T03:38:10;74597.97;;;-142.53;92.77
4133;BME280;2080;51.038;7.008;2022-07-25T03:40:37;74596.03;;;-142.53;92.60
4133;BME280;2080;51.038;7.008;2022-07-25T03:43:03;74592.13;;;-142.53;92.35
4133;BME280;2080;51.038;7.008;2022-07-25T03:45:29;74596.03;;;-142.53;92.18
4133;BME280;2080;51.038;7.008;2022-07-25T03:47:57;74596.03;;;-142.53;92.15
4133;BME280;2080;51.038;7.008;2022-07-25T03:50:22;74594.09;;;-142.53;92.03
4133;BME280;2080;51.038;7.008;2022-07-25T03:52:48;74592.13;;;-142.53;92.97
4133;BME280;2080;51.038;7.008;2022-07-25T03:55:16;74574.66;;;-142.53;91.79
4133;BME280;2080;51.038;7.008;2022-07-25T03:57:43;74568.84;;;-142.53;92.35
4133;BME280;2080;51.038;7.008;2022-07-25T04:00:09;74564.97;;;-142.53;91.96
4133;BME280;2080;51.038;7.008;2022-07-25T04:02:36;74564.97;;;-142.53;91.93
4133;BME280;2080;51.038;7.008;2022-07-25T04:05:03;74561.06;;;-142.53;92.11
4133;BME280;2080;51.038;7.008;2022-07-25T04:07:29;74559.13;;;-142.53;92.87
4133;BME280;2080;51.038;7.008;2022-07-25T04:09:55;74553.31;;;-142.53;92.38
4133;BME280;2080;51.038;7.008;2022-07-25T04:12:20;74549.44;;;-142.53;91.56
4133;BME280;2080;51.038;7.008;2022-07-25T04:14:45;74541.66;;;-142.53;91.72
4133;BME280;2080;51.038;7.008;2022-07-25T04:17:11;74535.84;;;-142.53;91.19
4133;BME280;2080;51.038;7.008;2022-07-25T04:19:39;74522.25;;;-142.53;90.30
4133;BME280;2080;51.038;7.008;2022-07-25T04:22:04;74514.50;;;-142.53;89.76
4133;BME280;2080;51.038;7.008;2022-07-25T04:24:29;74498.97;;;-142.53;89.78
4133;BME280;2080;51.038;7.008;2022-07-25T04:26:55;74487.31;;;-142.53;88.41
4133;BME280;2080;51.038;7.008;2022-07-25T04:29:23;74475.66;;;-142.53;87.65
4133;BME280;2080;51.038;7.008;2022-07-25T04:31:48;74452.38;;;-142.53;87.00
4133;BME280;2080;51.038;7.008;2022-07-25T04:34:16;74429.06;;;-142.53;85.57
4133;BME280;2080;51.038;7.008;2022-07-25T04:36:41;74405.78;;;-142.53;84.59
4133;BME280;2080;51.038;7.008;2022-07-25T04:39:09;74374.72;;;-142.53;83.54
4133;BME280;2080;51.038;7.008;2022-07-25T04:41:34;74351.44;;;-142.53;82.63
4133;BME280;2080;51.038;7.008;2022-07-25T04:44:04;74335.91;;;-142.53;81.98
4133;BME280;2080;51.038;7.008;2022-07-25T04:46:31;74293.19;;;-142.53;81.53
4133;BME280;2080;51.038;7.008;2022-07-25T04:48:57;74211.66;;;-142.53;79.06
4133;BME280;2080;51.038;7.008;2022-07-25T04:51:22;74137.91;;;-142.53;76.23
4133;BME280;2080;51.038;7.008;2022-07-25T04:53:47;74099.09;;;-142.53;73.82
4133;BME280;2080;51.038;7.008;2022-07-25T04:56:13;74091.31;;;-142.53;72.18
4133;BME280;2080;51.038;7.008;2022-07-25T04:58:39;74087.44;;;-142.53;71.64
4133;BME280;2080;51.038;7.008;2022-07-25T05:01:04;74081.63;;;-142.53;70.98
4133;BME280;2080;51.038;7.008;2022-07-25T05:03:29;74083.56;;;-142.53;70.70
4133;BME280;2080;51.038;7.008;2022-07-25T05:05:55;74081.63;;;-142.53;70.76
4133;BME280;2080;51.038;7.008;2022-07-25T05:08:20;74079.66;;;-142.53;70.71
4133;BME280;2080;51.038;7.008;2022-07-25T05:10:50;74075.78;;;-142.53;70.76
4133;BME280;2080;51.038;7.008;2022-07-25T05:13:18;74075.78;;;-142.53;70.44
4133;BME280;2080;51.038;7.008;2022-07-25T05:15:44;74077.72;;;-142.53;70.36
4133;BME280;2080;51.038;7.008;2022-07-25T05:18:09;74073.84;;;-142.53;70.32
4133;BME280;2080;51.038;7.008;2022-07-25T05:20:35;74068.03;;;-142.53;69.72
4133;BME280;2080;51.038;7.008;2022-07-25T05:23:00;74060.25;;;-142.53;69.45
4133;BME280;2080;51.038;7.008;2022-07-25T05:25:29;74048.63;;;-142.53;69.73
4133;BME280;2080;51.038;7.008;2022-07-25T05:27:57;74035.03;;;-142.53;69.43
4133;BME280;2080;51.038;7.008;2022-07-25T05:30:23;74033.09;;;-142.53;69.19
4133;BME280;2080;51.038;7.008;2022-07-25T05:32:48;74033.09;;;-142.53;68.82
4133;BME280;2080;51.038;7.008;2022-07-25T05:35:14;74029.22;;;-142.53;68.35
4133;BME280;2080;51.038;7.008;2022-07-25T05:37:42;74033.09;;;-142.53;67.83
4133;BME280;2080;51.038;7.008;2022-07-25T05:40:07;74029.22;;;-142.53;67.82
4133;BME280;2080;51.038;7.008;2022-07-25T05:42:36;74021.44;;;-142.53;67.67
4133;BME280;2080;51.038;7.008;2022-07-25T05:45:04;74023.38;;;-142.53;67.74
4133;BME280;2080;51.038;7.008;2022-07-25T05:47:29;74025.31;;;-142.53;67.63
4133;BME280;2080;51.038;7.008;2022-07-25T05:49:55;74029.22;;;-142.53;67.57
4133;BME280;2080;51.038;7.008;2022-07-25T05:52:20;74021.44;;;-142.53;67.76
4133;BME280;2080;51.038;7.008;2022-07-25T05:54:46;74013.69;;;-142.53;67.57
4133;BME280;2080;51.038;7.008;2022-07-25T05:57:13;74002.03;;;-142.53;67.12
4133;BME280;2080;51.038;7.008;2022-07-25T05:59:41;73990.38;;;-142.53;67.10
4133;BME280;2080;51.038;7.008;2022-07-25T06:02:06;73974.84;;;-142.53;66.67
4133;BME280;2080;51.038;7.008;2022-07-25T06:04:32;73959.34;;;-142.53;66.03
4133;BME280;2080;51.038;7.008;2022-07-25T06:07:00;73936.03;;;-142.53;65.37
4133;BME280;2080;51.038;7.008;2022-07-25T06:09:25;73928.28;;;-142.53;65.13
4133;BME280;2080;51.038;7.008;2022-07-25T06:11:54;73916.63;;;-142.53;65.20
4133;BME280;2080;51.038;7.008;2022-07-25T06:14:20;73910.81;;;-142.53;65.36
4133;BME280;2080;51.038;7.008;2022-07-25T06:16:47;73895.28;;;-142.53;64.86
4133;BME280;2080;51.038;7.008;2022-07-25T06:19:13;73887.50;;;-142.53;65.17
4133;BME280;2080;51.038;7.008;2022-07-25T06:21:38;73879.75;;;-142.53;65.27
4133;BME280;2080;51.038;7.008;2022-07-25T06:24:06;73868.09;;;-142.53;64.75
4133;BME280;2080;51.038;7.008;2022-07-25T06:26:32;73864.22;;;-142.53;64.68
4133;BME280;2080;51.038;7.008;2022-07-25T06:28:57;73860.34;;;-142.53;64.37
4133;BME280;2080;51.038;7.008;2022-07-25T06:31:25;73850.63;;;-142.53;64.22
4133;BME280;2080;51.038;7.008;2022-07-25T06:33:50;73842.88;;;-142.53;64.17
4133;BME280;2080;51.038;7.008;2022-07-25T06:36:15;73823.47;;;-142.53;63.93
4133;BME280;2080;51.038;7.008;2022-07-25T06:38:41;73800.19;;;-142.53;62.65
4133;BME280;2080;51.038;7.008;2022-07-25T06:41:06;73769.13;;;-142.53;62.22
4133;BME280;2080;51.038;7.008;2022-07-25T06:43:32;73743.88;;;-142.53;61.23
4133;BME280;2080;51.038;7.008;2022-07-25T06:45:57;73705.06;;;-142.53;60.31
4133;BME280;2080;51.038;7.008;2022-07-25T06:48:25;73677.91;;;-142.53;59.33
4133;BME280;2080;51.038;7.008;2022-07-25T06:50:51;73652.66;;;-142.53;58.25
4133;BME280;2080;51.038;7.008;2022-07-25T06:53:18;73629.38;;;-142.53;56.94
4133;BME280;2080;51.038;7.008;2022-07-25T06:55:44;73609.97;;;-142.53;55.62
4133;BME280;2080;51.038;7.008;2022-07-25T06:58:09;73590.56;;;-142.53;54.84
4133;BME280;2080;51.038;7.008;2022-07-25T07:00:35;73571.16;;;-142.53;53.49
4133;BME280;2080;51.038;7.008;2022-07-25T07:03:01;73549.81;;;-142.53;53.35
4133;BME280;2080;51.038;7.008;2022-07-25T07:05:32;73526.53;;;-142.53;53.44
4133;BME280;2080;51.038;7.008;2022-07-25T07:07:58;73505.19;;;-142.53;53.15
4133;BME280;2080;51.038;7.008;2022-07-25T07:10:25;73489.66;;;-142.53;52.71
4133;BME280;2080;51.038;7.008;2022-07-25T07:13:01;73468.31;;;-142.53;51.95
4133;BME280;2080;51.038;7.008;2022-07-25T07:15:27;73464.41;;;-142.53;51.36
4133;BME280;2080;51.038;7.008;2022-07-25T07:17:52;73443.06;;;-142.53;51.12
4133;BME280;2080;51.038;7.008;2022-07-25T07:20:18;73419.78;;;-142.53;50.77
4133;BME280;2080;51.038;7.008;2022-07-25T07:22:47;73404.25;;;-142.53;50.38
4133;BME280;2080;51.038;7.008;2022-07-25T07:25:14;73398.44;;;-142.53;50.08
4133;BME280;2080;51.038;7.008;2022-07-25T07:27:40;73380.97;;;-142.53;49.43
4133;BME280;2080;51.038;7.008;2022-07-25T07:30:06;73353.81;;;-142.53;49.28
4133;BME280;2080;51.038;7.008;2022-07-25T07:32:32;73330.53;;;-142.53;48.91
4133;BME280;2080;51.038;7.008;2022-07-25T07:34:59;73299.47;;;-142.53;48.44
4133;BME280;2080;51.038;7.008;2022-07-25T07:37:25;73285.88;;;-142.53;48.26
4133;BME280;2080;51.038;7.008;2022-07-25T07:39:53;73256.78;;;-142.53;47.90
4133;BME280;2080;51.038;7.008;2022-07-25T07:42:18;73225.72;;;-142.53;47.31
4133;BME280;2080;51.038;7.008;2022-07-25T07:44:43;73210.19;;;-142.53;47.10
4133;BME280;2080;51.038;7.008;2022-07-25T07:47:11;73190.81;;;-142.53;46.46
4133;BME280;2080;51.038;7.008;2022-07-25T07:49:36;73163.63;;;-142.53;45.28
4133;BME280;2080;51.038;7.008;2022-07-25T07:52:02;73128.69;;;-142.53;44.87
4133;BME280;2080;51.038;7.008;2022-07-25T07:54:28;73107.34;;;-142.53;44.22
4133;BME280;2080;51.038;7.008;2022-07-25T07:57:12;73086.00;;;-142.53;44.06
4133;BME280;2080;51.038;7.008;2022-07-25T07:59:37;73058.84;;;-142.53;44.01
4133;BME280;2080;51.038;7.008;2022-07-25T08:02:05;73035.56;;;-142.53;43.32
4133;BME280;2080;51.038;7.008;2022-07-25T08:04:33;73000.63;;;-142.53;43.32
4133;BME280;2080;51.038;7.008;2022-07-25T08:06:58;72973.47;;;-142.53;42.96
4133;BME280;2080;51.038;7.008;2022-07-25T08:09:29;72946.31;;;-142.53;42.30
4133;BME280;2080;51.038;7.008;2022-07-25T08:11:54;72923.00;;;-142.53;41.15
4133;BME280;2080;51.038;7.008;2022-07-25T08:14:19;72888.09;;;-142.53;41.15
4133;BME280;2080;51.038;7.008;2022-07-25T08:16:47;72862.88;;;-142.53;40.70
4133;BME280;2080;51.038;7.008;2022-07-25T08:19:13;72857.03;;;-142.53;39.92
4133;BME280;2080;51.038;7.008;2022-07-25T08:21:38;72855.09;;;-142.53;39.22
4133;BME280;2080;51.038;7.008;2022-07-25T08:24:04;72860.94;;;-142.53;39.55
4133;BME280;2080;51.038;7.008;2022-07-25T08:26:29;72872.56;;;-142.53;39.09
4133;BME280;2080;51.038;7.008;2022-07-25T08:28:57;72882.28;;;-142.53;39.11
4133;BME280;2080;51.038;7.008;2022-07-25T08:31:23;72895.84;;;-142.53;39.30
4133;BME280;2080;51.038;7.008;2022-07-25T08:33:50;72907.50;;;-142.53;39.34
4133;BME280;2080;51.038;7.008;2022-07-25T08:36:16;72926.91;;;-142.53;39.22
4133;BME280;2080;51.038;7.008;2022-07-25T08:38:41;72948.25;;;-142.53;39.17
4133;BME280;2080;51.038;7.008;2022-07-25T08:41:07;72969.59;;;-142.53;39.46
4133;BME280;2080;51.038;7.008;2022-07-25T08:43:36;72996.75;;;-142.53;38.28
4133;BME280;2080;51.038;7.008;2022-07-25T08:46:06;73020.03;;;-142.53;38.64
4133;BME280;2080;51.038;7.008;2022-07-25T08:48:31;73014.22;;;-142.53;38.98
4133;BME280;2080;51.038;7.008;2022-07-25T08:51:00;73023.91;;;-142.53;38.40
4133;BME280;2080;51.038;7.008;2022-07-25T08:53:26;73021.97;;;-142.53;38.27
4133;BME280;2080;51.038;7.008;2022-07-25T08:55:53;73039.44;;;-142.53;38.43
4133;BME280;2080;51.038;7.008;2022-07-25T08:58:21;73039.44;;;-142.53;38.44
4133;BME280;2080;51.038;7.008;2022-07-25T09:00:49;73039.44;;;-142.53;38.87
4133;BME280;2080;51.038;7.008;2022-07-25T09:03:14;73014.22;;;-142.53;39.15
4133;BME280;2080;51.038;7.008;2022-07-25T09:05:39;73043.31;;;-142.53;38.89
4133;BME280;2080;51.038;7.008;2022-07-25T09:08:13;73053.03;;;-142.53;38.76
4133;BME280;2080;51.038;7.008;2022-07-25T09:10:45;73066.59;;;-142.53;38.79
4133;BME280;2080;51.038;7.008;2022-07-25T09:13:12;73097.66;;;-142.53;39.26
4133;BME280;2080;51.038;7.008;2022-07-25T09:18:12;73181.09;;;-142.53;40.00
4133;BME280;2080;51.038;7.008;2022-07-25T09:23:12;73175.28;;;-142.53;40.37
4133;BME280;2080;51.038;7.008;2022-07-25T09:25:39;73167.50;;;-142.53;40.86
4133;BME280;2080;51.038;7.008;2022-07-25T09:28:15;73155.88;;;-142.53;40.34
4133;BME280;2080;51.038;7.008;2022-07-25T09:30:52;73159.75;;;-142.53;40.63
4133;BME280;2080;51.038;7.008;2022-07-25T09:33:24;73175.28;;;-142.53;40.29
4133;BME280;2080;51.038;7.008;2022-07-25T09:35:53;73171.41;;;-142.53;39.51
4133;BME280;2080;51.038;7.008;2022-07-25T09:38:23;73152.00;;;-142.53;39.99
4133;BME280;2080;51.038;7.008;2022-07-25T09:40:56;73109.28;;;-142.53;39.78
4133;BME280;2080;51.038;7.008;2022-07-25T09:43:22;73070.50;;;-142.53;39.39
4133;BME280;2080;51.038;7.008;2022-07-25T09:45:49;73082.13;;;-142.53;39.16
4133;BME280;2080;51.038;7.008;2022-07-25T09:48:17;73066.59;;;-142.53;38.95
4133;BME280;2080;51.038;7.008;2022-07-25T09:50:43;73066.59;;;-142.53;39.02
4133;BME280;2080;51.038;7.008;2022-07-25T09:53:13;73087.94;;;-142.53;38.84
4133;BME280;2080;51.038;7.008;2022-07-25T09:55:39;73086.00;;;-142.53;39.03
4133;BME280;2080;51.038;7.008;2022-07-25T09:58:07;73120.94;;;-142.53;38.51
4133;BME280;2080;51.038;7.008;2022-07-25T10:00:33;73167.50;;;-142.53;38.85
4133;BME280;2080;51.038;7.008;2022-07-25T10:08:06;73322.75;;;-142.53;40.45
4133;BME280;2080;51.038;7.008;2022-07-25T10:10:39;73332.47;;;-142.53;41.32
4133;BME280;2080;51.038;7.008;2022-07-25T10:13:09;73379.03;;;-142.53;41.62
4133;BME280;2080;51.038;7.008;2022-07-25T10:15:49;73412.03;;;-142.53;42.44
4133;BME280;2080;51.038;7.008;2022-07-25T10:18:20;73458.59;;;-142.53;42.87
4133;BME280;2080;51.038;7.008;2022-07-25T10:20:50;73472.19;;;-142.53;43.88
4133;BME280;2080;51.038;7.008;2022-07-25T10:23:21;73499.34;;;-142.53;44.76
4133;BME280;2080;51.038;7.008;2022-07-25T10:26:11;73505.19;;;-142.53;45.29
4133;BME280;2080;51.038;7.008;2022-07-25T10:31:18;73516.81;;;-142.53;46.29
4133;BME280;2080;51.038;7.008;2022-07-25T10:36:20;73582.81;;;-142.53;46.64
4133;BME280;2080;51.038;7.008;2022-07-25T10:38:46;73588.63;;;-142.53;46.64
4133;BME280;2080;51.038;7.008;2022-07-25T10:41:15;73598.34;;;-142.53;47.93
4133;BME280;2080;51.038;7.008;2022-07-25T10:43:43;73666.25;;;-142.53;51.44
4133;BME280;2080;51.038;7.008;2022-07-25T10:46:16;73703.13;;;-142.53;53.05
4133;BME280;2080;51.038;7.008;2022-07-25T10:48:42;73668.19;;;-142.53;52.47
4133;BME280;2080;51.038;7.008;2022-07-25T10:51:09;73648.78;;;-142.53;55.40
4133;BME280;2080;51.038;7.008;2022-07-25T10:53:46;73656.56;;;-142.53;53.67
4133;BME280;2080;51.038;7.008;2022-07-25T10:56:20;73642.97;;;-142.53;54.07
4133;BME280;2080;51.038;7.008;2022-07-25T10:58:57;73617.75;;;-142.53;51.65
4133;BME280;2080;51.038;7.008;2022-07-25T11:03:53;73606.09;;;-142.53;51.56
4133;BME280;2080;51.038;7.008;2022-07-25T11:06:39;73567.28;;;-142.53;51.78
4133;BME280;2080;51.038;7.008;2022-07-25T11:11:47;73435.31;;;-142.53;47.55
4133;BME280;2080;51.038;7.008;2022-07-25T11:14:21;73369.34;;;-142.53;46.86
4133;BME280;2080;51.038;7.008;2022-07-25T11:16:53;73311.13;;;-142.53;45.75
4133;BME280;2080;51.038;7.008;2022-07-25T11:19:30;73280.06;;;-142.53;44.48
4133;BME280;2080;51.038;7.008;2022-07-25T11:21:59;73276.19;;;-142.53;44.01
4133;BME280;2080;51.038;7.008;2022-07-25T11:24:42;73276.19;;;-142.53;43.91
4133;BME280;2080;51.038;7.008;2022-07-25T11:27:10;73264.53;;;-142.53;43.84
4133;BME280;2080;51.038;7.008;2022-07-25T11:29:39;73266.47;;;-142.53;43.72
4133;BME280;2080;51.038;7.008;2022-07-25T11:32:09;73260.66;;;-142.53;43.14
4133;BME280;2080;51.038;7.008;2022-07-25T11:34:47;73293.66;;;-142.53;42.39
4133;BME280;2080;51.038;7.008;2022-07-25T11:37:13;73311.13;;;-142.53;43.13
4133;BME280;2080;51.038;7.008;2022-07-25T11:39:41;73340.22;;;-142.53;43.62
4133;BME280;2080;51.038;7.008;2022-07-25T11:42:11;73330.53;;;-142.53;43.87
4133;BME280;2080;51.038;7.008;2022-07-25T11:44:44;73309.16;;;-142.53;43.12
4133;BME280;2080;51.038;7.008;2022-07-25T11:47:30;73276.19;;;-142.53;41.73
4133;BME280;2080;51.038;7.008;2022-07-25T11:49:59;73268.41;;;-142.53;40.85
4133;BME280;2080;51.038;7.008;2022-07-25T11:52:36;73241.25;;;-142.53;40.53
4133;BME280;2080;51.038;7.008;2022-07-25T11:55:06;73239.31;;;-142.53;40.46
4133;BME280;2080;51.038;7.008;2022-07-25T11:57:42;73268.41;;;-142.53;40.63
4133;BME280;2080;51.038;7.008;2022-07-25T12:00:19;73291.72;;;-142.53;41.46
4133;BME280;2080;51.038;7.008;2022-07-25T12:02:46;73293.66;;;-142.53;41.50
4133;BME280;2080;51.038;7.008;2022-07-25T12:05:16;73353.81;;;-142.53;41.24
4133;BME280;2080;51.038;7.008;2022-07-25T12:07:49;73311.13;;;-142.53;40.92
4133;BME280;2080;51.038;7.008;2022-07-25T12:12:47;73214.09;;;-142.53;39.61
4133;BME280;2080;51.038;7.008;2022-07-25T12:15:17;73216.03;;;-142.53;38.89
4133;BME280;2080;51.038;7.008;2022-07-25T12:17:43;73256.78;;;-142.53;39.36
4133;BME280;2080;51.038;7.008;2022-07-25T12:20:22;73280.06;;;-142.53;38.67
4133;BME280;2080;51.038;7.008;2022-07-25T12:22:52;73272.31;;;-142.53;39.02
4133;BME280;2080;51.038;7.008;2022-07-25T12:25:17;73260.66;;;-142.53;38.75
4133;BME280;2080;51.038;7.008;2022-07-25T12:27:43;73264.53;;;-142.53;38.85
4133;BME280;2080;51.038;7.008;2022-07-25T12:30:12;73249.00;;;-142.53;38.42
4133;BME280;2080;51.038;7.008;2022-07-25T12:32:39;73219.91;;;-142.53;38.58
4133;BME280;2080;51.038;7.008;2022-07-25T12:35:07;73217.97;;;-142.53;38.81
4133;BME280;2080;51.038;7.008;2022-07-25T12:37:33;73186.91;;;-142.53;38.94
4133;BME280;2080;51.038;7.008;2022-07-25T12:40:02;73202.44;;;-142.53;38.76
4133;BME280;2080;51.038;7.008;2022-07-25T12:42:30;73204.38;;;-142.53;38.64
4133;BME280;2080;51.038;7.008;2022-07-25T12:44:56;73217.97;;;-142.53;38.84
4133;BME280;2080;51.038;7.008;2022-07-25T12:47:22;73179.16;;;-142.53;38.86
4133;BME280;2080;51.038;7.008;2022-07-25T12:49:48;73167.50;;;-142.53;38.92
4133;BME280;2080;51.038;7.008;2022-07-25T12:52:14;73167.50;;;-142.53;38.70
4133;BME280;2080;51.038;7.008;2022-07-25T12:54:42;73132.59;;;-142.53;38.59
4133;BME280;2080;51.038;7.008;2022-07-25T12:57:09;73148.09;;;-142.53;38.68
4133;BME280;2080;51.038;7.008;2022-07-25T12:59:37;73084.06;;;-142.53;38.65
4133;BME280;2080;51.038;7.008;2022-07-25T13:02:06;73089.88;;;-142.53;38.38
4133;BME280;2080;51.038;7.008;2022-07-25T13:04:36;73089.88;;;-142.53;38.01
4133;BME280;2080;51.038;7.008;2022-07-25T13:07:02;73078.25;;;-142.53;38.18
4133;BME280;2080;51.038;7.008;2022-07-25T13:09:27;73074.38;;;-142.53;38.63
4133;BME280;2080;51.038;7.008;2022-07-25T13:11:56;73066.59;;;-142.53;38.83
4133;BME280;2080;51.038;7.008;2022-07-25T13:14:22;73105.41;;;-142.53;38.87
4133;BME280;2080;51.038;7.008;2022-07-25T13:16:47;73144.22;;;-142.53;38.97
4133;BME280;2080;51.038;7.008;2022-07-25T13:19:14;73183.03;;;-142.53;39.90
4133;BME280;2080;51.038;7.008;2022-07-25T13:21:40;73214.09;;;-142.53;39.96
4133;BME280;2080;51.038;7.008;2022-07-25T13:24:05;73233.50;;;-142.53;40.18